Time;durP1;ratioP1;P1;durP2;ratioP2;P2;SDS_P1;SDS_P2;PMS_P1;PMS_P2;Temp;Humidity;BMP_temperature;BMP_pressure;BME280_temperature;BME280_humidity;BME280_pressure;Samples;Min_cycle;Max_cycle;Signal;HPM_P1;HPM_P2
2022/04/03 00:01:16;;;;;;;51.47;22.88;;;;;;;-2.14;100.00;95254.00;5100487;28;20044;-73
2022/04/03 00:03:41;;;;;;;48.75;21.60;;;;;;;-2.14;100.00;95251.44;5111486;27;20047;-72
2022/04/03 00:06:07;;;;;;;58.38;22.73;;;;;;;-2.16;100.00;95240.53;5101728;28;20452;-72
2022/04/03 00:08:33;;;;;;;47.83;21.90;;;;;;;-2.15;100.00;95247.28;5090004;28;20076;-72
2022/04/03 00:10:59;;;;;;;53.40;22.45;;;;;;;-2.18;100.00;95255.41;5090212;28;20089;-72
2022/04/03 00:13:25;;;;;;;54.33;23.88;;;;;;;-2.21;100.00;95253.19;5071818;28;20036;-72
2022/04/03 00:15:51;;;;;;;52.78;22.10;;;;;;;-2.21;100.00;95248.03;5106927;28;20047;-72
2022/04/03 00:18:17;;;;;;;58.95;22.90;;;;;;;-2.20;100.00;95254.81;5107832;28;20435;-72
2022/04/03 00:20:43;;;;;;;57.03;22.77;;;;;;;-2.25;100.00;95252.03;5098161;28;20067;-72
2022/04/03 00:23:09;;;;;;;55.80;22.15;;;;;;;-2.35;100.00;95253.19;5076032;28;20421;-72
2022/04/03 00:25:35;;;;;;;48.85;20.65;;;;;;;-2.30;100.00;95250.00;5089872;28;20047;-72
2022/04/03 00:28:01;;;;;;;49.33;20.45;;;;;;;-2.34;100.00;95259.94;5089753;28;20040;-73
2022/04/03 00:30:27;;;;;;;52.83;21.65;;;;;;;-2.33;100.00;95261.53;5109081;28;20044;-73
2022/04/03 00:32:52;;;;;;;43.38;19.35;;;;;;;-2.32;100.00;95264.88;5102076;28;20036;-73
2022/04/03 00:35:20;;;;;;;47.22;20.88;;;;;;;-2.31;100.00;95264.69;5089585;28;20111;-73
2022/04/03 00:37:46;;;;;;;43.03;19.45;;;;;;;-2.29;100.00;95267.88;5107788;28;20046;-72
2022/04/03 00:40:12;;;;;;;41.40;19.20;;;;;;;-2.33;100.00;95265.88;5101425;28;20040;-73
2022/04/03 00:42:39;;;;;;;52.35;20.40;;;;;;;-2.31;100.00;95269.84;5102935;28;20048;-73
2022/04/03 00:45:05;;;;;;;44.15;17.55;;;;;;;-2.29;100.00;95275.59;5071645;28;20051;-73
2022/04/03 00:47:32;;;;;;;53.20;20.42;;;;;;;-2.31;100.00;95272.44;5089460;28;20115;-72
2022/04/03 00:49:57;;;;;;;42.80;18.10;;;;;;;-2.36;100.00;95272.22;5089726;28;20417;-73
2022/04/03 00:52:23;;;;;;;43.47;17.40;;;;;;;-2.35;100.00;95273.81;5089235;28;20062;-73
2022/04/03 00:54:49;;;;;;;45.80;18.30;;;;;;;-2.34;100.00;95267.66;5091941;28;20050;-73
2022/04/03 00:57:15;;;;;;;44.03;19.23;;;;;;;-2.36;100.00;95267.06;5099323;28;20440;-72
2022/04/03 00:59:42;;;;;;;43.30;18.17;;;;;;;-2.38;100.00;95269.03;5101453;28;20066;-72
2022/04/03 01:02:09;;;;;;;42.20;17.88;;;;;;;-2.39;100.00;95275.16;5094564;28;20760;-72
2022/04/03 01:04:38;;;;;;;42.80;18.02;;;;;;;-2.33;100.00;95271.84;5099792;28;20063;-72
2022/04/03 01:07:05;;;;;;;46.65;18.65;;;;;;;-2.28;100.00;95269.47;5099464;28;20047;-72
2022/04/03 01:09:31;;;;;;;46.97;19.67;;;;;;;-2.25;100.00;95267.50;5091836;28;20665;-73
2022/04/03 01:11:56;;;;;;;37.65;17.65;;;;;;;-2.22;100.00;95264.53;5094389;28;20042;-73
2022/04/03 01:14:37;;;;;;;45.90;18.38;;;;;;;-2.18;100.00;95268.31;5099710;28;20040;-73
2022/04/03 01:17:04;;;;;;;39.70;16.88;;;;;;;-2.15;100.00;95273.06;5100180;28;20089;-73
2022/04/03 01:19:29;;;;;;;35.38;15.93;;;;;;;-2.15;100.00;95270.50;5091378;28;20051;-73
2022/04/03 01:21:56;;;;;;;35.47;15.05;;;;;;;-2.08;100.00;95268.72;5095917;28;20036;-73
2022/04/03 01:24:23;;;;;;;39.70;17.63;;;;;;;-2.20;100.00;95271.06;5105304;28;20436;-73
2022/04/03 01:26:49;;;;;;;40.38;17.73;;;;;;;-2.14;100.00;95265.13;5083871;28;20044;-73
2022/04/03 01:29:18;;;;;;;45.42;19.38;;;;;;;-2.24;100.00;95269.88;5090844;28;20041;-72
2022/04/03 01:31:45;;;;;;;45.17;19.85;;;;;;;-2.20;100.00;95265.13;5109485;28;20051;-73
2022/04/03 01:34:12;;;;;;;48.22;20.45;;;;;;;-2.22;100.00;95267.09;5098511;28;20087;-73
2022/04/03 01:36:37;;;;;;;43.90;20.33;;;;;;;-2.15;100.00;95278.22;5093467;28;20043;-73
2022/04/03 01:39:03;;;;;;;46.28;20.58;;;;;;;-2.15;100.00;95280.81;5092965;28;20044;-73
2022/04/03 01:41:29;;;;;;;45.55;20.42;;;;;;;-2.11;100.00;95279.44;5107558;28;20054;-73
2022/04/03 01:43:54;;;;;;;45.55;20.90;;;;;;;-2.06;100.00;95277.03;5104709;28;20035;-72
2022/04/03 01:46:20;;;;;;;50.85;21.75;;;;;;;-2.00;100.00;95281.41;5077199;28;20044;-73
2022/04/03 01:48:45;;;;;;;48.03;21.60;;;;;;;-2.05;100.00;95277.81;5092783;28;20070;-73
2022/04/03 01:51:11;;;;;;;55.45;22.30;;;;;;;-2.04;100.00;95285.41;5106319;28;20044;-73
2022/04/03 01:53:36;;;;;;;52.20;21.67;;;;;;;-2.04;100.00;95289.75;5103593;28;20028;-73
2022/04/03 01:56:08;;;;;;;45.95;21.38;;;;;;;-2.04;100.00;95285.41;5098906;28;20051;-73
2022/04/03 01:58:34;;;;;;;48.65;21.50;;;;;;;-2.10;100.00;95281.00;5092340;28;20043;-73
2022/04/03 02:01:00;;;;;;;45.88;20.33;;;;;;;-2.14;100.00;95284.94;5092803;28;20055;-73
2022/04/03 02:03:27;;;;;;;47.08;20.95;;;;;;;-2.13;100.00;95282.19;5074279;28;20071;-73
2022/04/03 02:05:53;;;;;;;51.88;21.67;;;;;;;-2.06;100.00;95284.00;5087141;28;20098;-73
2022/04/03 02:08:19;;;;;;;54.42;22.30;;;;;;;-2.12;100.00;95288.16;5112752;28;20043;-73
2022/04/03 02:10:45;;;;;;;57.33;23.58;;;;;;;-2.15;100.00;95288.53;5105053;28;20052;-73
2022/04/03 02:13:11;;;;;;;53.83;22.95;;;;;;;-2.21;100.00;95289.28;5103142;28;20040;-73
2022/04/03 02:15:37;;;;;;;59.60;24.13;;;;;;;-2.19;100.00;95292.50;5101134;28;20417;-73
2022/04/03 02:18:02;;;;;;;55.30;23.23;;;;;;;-2.18;100.00;95291.50;5110634;28;20043;-73
2022/04/03 02:20:28;;;;;;;54.08;22.90;;;;;;;-2.12;100.00;95294.09;5095448;28;20040;-73
2022/04/03 02:22:53;;;;;;;59.45;23.83;;;;;;;-2.19;100.00;95287.34;5093477;28;20047;-73
2022/04/03 02:25:19;;;;;;;60.15;22.40;;;;;;;-2.16;100.00;95292.88;5096752;28;20055;-73
2022/04/03 02:27:46;;;;;;;57.85;23.05;;;;;;;-2.19;100.00;95292.50;5092295;28;20048;-73
2022/04/03 02:30:13;;;;;;;57.30;22.65;;;;;;;-2.15;100.00;95293.69;5104274;28;20042;-73
2022/04/03 02:32:39;;;;;;;56.92;22.48;;;;;;;-2.11;100.00;95289.75;5090788;28;20074;-73
2022/04/03 02:35:07;;;;;;;57.42;24.40;;;;;;;-2.11;100.00;95300.06;5106702;28;20493;-73
2022/04/03 02:37:36;;;;;;;59.20;23.25;;;;;;;-2.09;100.00;95304.00;5090918;28;20559;-73
2022/04/03 02:40:03;;;;;;;53.17;23.10;;;;;;;-2.05;100.00;95304.44;5091496;28;20549;-73
2022/04/03 02:42:29;;;;;;;57.85;24.02;;;;;;;-2.10;100.00;95302.44;5091662;28;20050;-73
2022/04/03 02:44:54;;;;;;;54.83;23.42;;;;;;;-2.13;100.00;95307.19;5097169;28;20036;-73
2022/04/03 02:47:20;;;;;;;54.42;23.30;;;;;;;-2.16;100.00;95313.50;5090841;28;20051;-73
2022/04/03 02:49:46;;;;;;;57.15;21.95;;;;;;;-2.12;100.00;95306.19;5083964;28;20048;-73
2022/04/03 02:52:11;;;;;;;53.60;22.55;;;;;;;-2.11;100.00;95305.22;5102915;28;20104;-73
2022/04/03 02:54:37;;;;;;;51.95;22.10;;;;;;;-2.08;100.00;95309.97;5097346;28;20413;-73
2022/04/03 02:57:03;;;;;;;58.15;23.30;;;;;;;-2.04;100.00;95316.34;5106528;27;20044;-73
2022/04/03 02:59:29;;;;;;;57.60;22.92;;;;;;;-2.10;100.00;95310.19;5106980;28;20859;-73
2022/04/03 03:01:54;;;;;;;54.25;22.27;;;;;;;-2.12;100.00;95319.09;5073747;28;20036;-73
2022/04/03 03:04:20;;;;;;;54.15;23.27;;;;;;;-2.13;100.00;95313.13;5091246;28;20036;-73
2022/04/03 03:06:45;;;;;;;54.45;21.65;;;;;;;-2.07;100.00;95316.69;5091623;28;20048;-73
2022/04/03 03:09:11;;;;;;;61.28;22.80;;;;;;;-2.08;100.00;95315.13;5098365;28;20093;-73
2022/04/03 03:11:37;;;;;;;58.90;23.10;;;;;;;-2.12;100.00;95308.78;5100638;28;20048;-73
2022/04/03 03:14:02;;;;;;;54.45;22.52;;;;;;;-2.08;100.00;95320.28;5090700;28;20036;-73
2022/04/03 03:16:28;;;;;;;53.35;22.77;;;;;;;-2.02;100.00;95323.88;5100861;28;20067;-73
2022/04/03 03:18:54;;;;;;;59.30;23.58;;;;;;;-2.06;100.00;95318.31;5091043;28;20089;-73
2022/04/03 03:21:19;;;;;;;58.17;24.00;;;;;;;-2.05;100.00;95319.91;5091310;28;20757;-73
2022/04/03 03:23:45;;;;;;;56.50;23.67;;;;;;;-2.11;100.00;95326.63;5090736;28;20044;-73
2022/04/03 03:26:10;;;;;;;56.65;23.05;;;;;;;-2.07;100.00;95321.84;5090603;28;20081;-73
2022/04/03 03:28:36;;;;;;;58.58;23.13;;;;;;;-2.07;100.00;95327.00;5091058;28;20052;-73
2022/04/03 03:31:02;;;;;;;56.78;23.33;;;;;;;-2.07;100.00;95329.59;5088845;28;20063;-73
2022/04/03 03:33:27;;;;;;;57.92;23.73;;;;;;;-2.08;100.00;95325.44;5098105;28;20044;-73
2022/04/03 03:35:54;;;;;;;52.88;22.60;;;;;;;-2.11;100.00;95325.84;5107716;28;20044;-73
2022/04/03 03:38:21;;;;;;;51.03;21.63;;;;;;;-2.07;100.00;95326.22;5111033;28;20035;-73
2022/04/03 03:40:47;;;;;;;49.35;21.55;;;;;;;-2.08;100.00;95335.75;5076844;28;20097;-73
2022/04/03 03:43:12;;;;;;;52.03;21.58;;;;;;;-2.00;100.00;95338.16;5090632;28;20043;-73
2022/04/03 03:45:38;;;;;;;50.95;21.85;;;;;;;-2.05;100.00;95335.38;5099729;28;20043;-73
2022/04/03 03:48:04;;;;;;;51.95;22.33;;;;;;;-1.99;100.00;95334.59;5107902;28;20036;-73
2022/04/03 03:50:30;;;;;;;52.97;21.70;;;;;;;-2.04;100.00;95339.53;5072553;28;20044;-73
2022/04/03 03:52:55;;;;;;;55.67;22.13;;;;;;;-1.95;100.00;95340.94;5102117;28;20406;-73
2022/04/03 03:55:21;;;;;;;53.97;22.13;;;;;;;-2.11;100.00;95351.63;5105504;28;20040;-73
2022/04/03 03:57:47;;;;;;;45.55;20.30;;;;;;;-2.07;100.00;95342.50;5101516;28;20040;-73
2022/04/03 04:00:14;;;;;;;47.47;21.13;;;;;;;-2.09;100.00;95352.22;5085305;28;20120;-73
2022/04/03 04:02:40;;;;;;;53.60;22.15;;;;;;;-2.09;100.00;95354.78;5086728;28;20050;-73
2022/04/03 04:05:06;;;;;;;53.10;21.42;;;;;;;-2.13;100.00;95353.59;5096498;28;20044;-73
2022/04/03 04:07:58;;;;;;;56.90;22.70;;;;;;;-2.13;100.00;95358.75;5090092;28;20386;-73
2022/04/03 04:10:23;;;;;;;51.42;21.73;;;;;;;-2.10;100.00;95364.31;5086318;28;20068;-73
2022/04/03 04:12:49;;;;;;;53.78;22.08;;;;;;;-2.14;100.00;95363.13;5104457;28;20513;-73
2022/04/03 04:15:15;;;;;;;46.35;19.88;;;;;;;-2.18;100.00;95371.44;5088193;28;20036;-73
2022/04/03 04:17:44;;;;;;;53.97;21.33;;;;;;;-2.18;100.00;95366.28;5090231;28;20044;-73
2022/04/03 04:20:12;;;;;;;54.70;21.98;;;;;;;-2.20;100.00;95368.25;5089921;28;20051;-73
2022/04/03 04:22:39;;;;;;;54.78;22.95;;;;;;;-2.18;100.00;95368.84;5089717;28;20047;-73
2022/04/03 04:25:05;;;;;;;48.85;20.33;;;;;;;-2.18;100.00;95372.22;5080454;28;20074;-73
2022/04/03 04:27:31;;;;;;;48.60;20.30;;;;;;;-2.16;100.00;95369.44;5090098;28;20036;-74
2022/04/03 04:29:57;;;;;;;56.00;22.05;;;;;;;-2.13;100.00;95379.38;5089753;28;20036;-74
2022/04/03 04:32:24;;;;;;;48.85;20.45;;;;;;;-2.09;100.00;95370.25;5094428;28;20039;-73
2022/04/03 04:34:50;;;;;;;53.13;22.10;;;;;;;-2.14;100.00;95372.63;5086373;28;20044;-73
2022/04/03 04:37:19;;;;;;;54.65;23.00;;;;;;;-2.15;100.00;95376.19;5089726;28;20537;-73
2022/04/03 04:39:45;;;;;;;53.33;22.17;;;;;;;-2.10;100.00;95389.28;5098319;28;20047;-73
2022/04/03 04:42:12;;;;;;;55.70;23.38;;;;;;;-2.14;100.00;95385.50;5078817;28;20042;-73
2022/04/03 04:44:38;;;;;;;51.08;22.20;;;;;;;-2.08;100.00;95382.19;5079825;28;20039;-73
2022/04/03 04:47:04;;;;;;;57.60;23.35;;;;;;;-2.19;100.00;95385.31;5106327;28;20096;-73
2022/04/03 04:49:29;;;;;;;54.15;22.60;;;;;;;-2.21;100.00;95382.09;5075970;28;20040;-73
2022/04/03 04:51:55;;;;;;;57.80;23.80;;;;;;;-2.20;100.00;95383.69;5090638;28;20105;-73
2022/04/03 04:54:20;;;;;;;60.47;24.15;;;;;;;-2.13;100.00;95384.53;5105563;28;20071;-73
2022/04/03 04:56:46;;;;;;;55.28;23.38;;;;;;;-2.23;100.00;95386.66;5089078;28;20040;-73
2022/04/03 04:59:12;;;;;;;62.20;24.73;;;;;;;-2.23;100.00;95395.19;5096187;28;20035;-73
2022/04/03 05:01:37;;;;;;;59.88;24.50;;;;;;;-2.21;100.00;95387.25;5077156;28;20047;-73
2022/04/03 05:04:04;;;;;;;64.53;24.60;;;;;;;-2.24;100.00;95392.81;5096160;28;20408;-73
2022/04/03 05:06:29;;;;;;;63.33;25.23;;;;;;;-2.16;100.00;95401.16;5082707;28;20047;-73
2022/04/03 05:08:55;;;;;;;62.08;24.70;;;;;;;-2.15;100.00;95407.94;5083744;28;20036;-73
2022/04/03 05:11:22;;;;;;;66.57;26.38;;;;;;;-2.16;100.00;95400.38;5092313;28;20040;-73
2022/04/03 05:13:48;;;;;;;64.28;24.92;;;;;;;-2.21;100.00;95402.72;5088043;28;20054;-73
2022/04/03 05:16:14;;;;;;;77.68;27.10;;;;;;;-2.20;100.00;95404.31;5107561;28;20047;-73
2022/04/03 05:18:40;;;;;;;67.22;24.95;;;;;;;-2.25;100.00;95404.91;5109502;28;20096;-73
2022/04/03 05:21:10;;;;;;;62.15;25.48;;;;;;;-2.18;100.00;95405.72;5089047;28;20051;-73
2022/04/03 05:23:37;;;;;;;57.90;24.33;;;;;;;-2.31;100.00;95414.19;5070829;28;20111;-73
2022/04/03 05:26:03;;;;;;;59.65;25.13;;;;;;;-2.27;100.00;95418.00;5101378;28;20108;-73
2022/04/03 05:28:29;;;;;;;60.03;24.42;;;;;;;-2.12;100.00;95417.06;5088922;28;20039;-73
2022/04/03 05:30:55;;;;;;;63.65;25.75;;;;;;;-2.24;100.00;95423.75;5093574;28;20051;-73
2022/04/03 05:33:21;;;;;;;60.35;23.90;;;;;;;-2.30;100.00;95426.13;5089101;28;20497;-73
2022/04/03 05:35:46;;;;;;;69.00;26.02;;;;;;;-2.27;100.00;95425.72;5076437;28;20050;-73
2022/04/03 05:38:12;;;;;;;73.57;26.67;;;;;;;-2.34;100.00;95430.06;5088978;28;20071;-73
2022/04/03 05:40:38;;;;;;;64.80;24.73;;;;;;;-2.24;100.00;95434.06;5088764;28;20040;-74
2022/04/03 05:43:03;;;;;;;69.07;25.75;;;;;;;-2.29;100.00;95432.84;5088528;28;20687;-74
2022/04/03 05:45:29;;;;;;;62.08;25.25;;;;;;;-2.29;100.00;95435.41;5101760;28;20051;-73
2022/04/03 05:47:54;;;;;;;59.05;24.90;;;;;;;-2.27;100.00;95441.19;5107237;28;20038;-73
2022/04/03 05:50:20;;;;;;;61.67;24.23;;;;;;;-2.21;100.00;95443.97;5108573;28;20512;-74
2022/04/03 05:52:50;;;;;;;65.22;25.05;;;;;;;-2.25;100.00;95437.63;5100283;28;20085;-74
2022/04/03 05:55:18;;;;;;;64.53;25.27;;;;;;;-2.25;100.00;95442.78;5083461;28;20048;-74
2022/04/03 05:57:45;;;;;;;66.50;25.20;;;;;;;-2.19;100.00;95447.19;5091226;28;20123;-74
2022/04/03 06:00:12;;;;;;;57.78;23.67;;;;;;;-2.29;100.00;95450.88;5070792;28;20521;-74
2022/04/03 06:02:48;;;;;;;63.33;25.67;;;;;;;-2.20;100.00;95448.16;5108933;28;20489;-74
2022/04/03 06:05:14;;;;;;;64.82;25.00;;;;;;;-2.21;100.00;95454.28;5077592;28;20461;-74
2022/04/03 06:07:40;;;;;;;64.63;23.92;;;;;;;-2.16;100.00;95451.94;5095852;28;20047;-73
2022/04/03 06:10:06;;;;;;;64.65;25.63;;;;;;;-2.09;100.00;95452.78;5091692;28;20598;-73
2022/04/03 06:12:32;;;;;;;59.10;24.00;;;;;;;-2.14;100.00;95452.53;5098801;28;20039;-72
2022/04/03 06:14:57;;;;;;;61.08;25.15;;;;;;;-2.14;100.00;95460.28;5108206;28;20044;-74
2022/04/03 06:17:23;;;;;;;55.35;23.02;;;;;;;-2.06;100.00;95462.72;5088258;28;20520;-74
2022/04/03 06:19:49;;;;;;;63.45;24.27;;;;;;;-2.10;100.00;95467.47;5108441;28;20052;-73
2022/04/03 06:22:15;;;;;;;58.30;23.75;;;;;;;-2.07;100.00;95468.06;5090071;28;20106;-73
2022/04/03 06:24:41;;;;;;;63.67;24.13;;;;;;;-2.00;100.00;95467.09;5109493;28;20519;-74
2022/04/03 06:27:06;;;;;;;59.58;23.50;;;;;;;-2.05;100.00;95474.63;5087497;28;20682;-74
2022/04/03 06:29:32;;;;;;;56.97;22.60;;;;;;;-1.99;100.00;95473.84;5094361;28;20114;-74
2022/04/03 06:31:57;;;;;;;54.33;21.75;;;;;;;-2.00;100.00;95472.25;5094911;28;20059;-74
2022/04/03 06:34:23;;;;;;;52.83;20.98;;;;;;;-1.95;100.00;95469.91;5092267;28;20048;-72
2022/04/03 06:36:49;;;;;;;58.22;22.25;;;;;;;-2.01;100.00;95478.41;5105202;28;20125;-75
2022/04/03 06:39:14;;;;;;;51.92;20.95;;;;;;;-1.86;100.00;95482.66;5095068;28;20146;-74
2022/04/03 06:41:40;;;;;;;55.72;22.05;;;;;;;-2.01;100.00;95481.00;5104681;28;20031;-74
2022/04/03 06:44:06;;;;;;;47.72;19.73;;;;;;;-1.81;100.00;95490.59;5074419;28;20048;-74
2022/04/03 06:46:32;;;;;;;42.50;18.80;;;;;;;-2.01;100.00;95491.31;5098497;28;20035;-74
2022/04/03 06:48:58;;;;;;;42.67;18.23;;;;;;;-1.87;100.00;95496.53;5112350;28;20043;-75
2022/04/03 06:51:24;;;;;;;48.70;19.30;;;;;;;-1.89;100.00;95493.34;5084134;28;20093;-75
2022/04/03 06:53:49;;;;;;;48.15;19.77;;;;;;;-1.82;100.00;95500.13;5087793;28;20048;-75
2022/04/03 06:56:14;;;;;;;44.55;18.80;;;;;;;-1.88;100.00;95500.09;5099117;28;20111;-74
2022/04/03 06:58:40;;;;;;;41.22;17.63;;;;;;;-1.84;100.00;95502.13;5102216;28;20163;-75
2022/04/03 07:01:06;;;;;;;41.13;18.45;;;;;;;-1.75;100.00;95500.16;5104239;28;20493;-75
2022/04/03 07:03:35;;;;;;;47.13;19.92;;;;;;;-1.73;100.00;95507.72;5093570;28;20044;-75
2022/04/03 07:06:01;;;;;;;50.45;19.35;;;;;;;-1.74;100.00;95501.75;5091521;28;20039;-77
2022/04/03 07:08:28;;;;;;;47.30;18.95;;;;;;;-1.71;100.00;95506.53;5091757;28;20047;-77
2022/04/03 07:10:56;;;;;;;48.03;18.90;;;;;;;-1.69;100.00;95504.56;5074179;28;20040;-76
2022/04/03 07:13:22;;;;;;;45.38;18.63;;;;;;;-1.65;100.00;95516.09;5103839;28;20523;-77
2022/04/03 07:15:49;;;;;;;40.53;18.23;;;;;;;-1.68;100.00;95511.31;5100684;28;20048;-76
2022/04/03 07:18:16;;;;;;;52.60;18.92;;;;;;;-1.66;100.00;95509.31;5106557;28;20126;-76
2022/04/03 07:20:46;;;;;;;40.30;17.73;;;;;;;-1.80;100.00;95512.84;5109412;28;20043;-76
2022/04/03 07:23:12;;;;;;;46.80;19.10;;;;;;;-1.94;100.00;95517.94;5088707;28;20101;-76
2022/04/03 07:25:37;;;;;;;43.33;19.23;;;;;;;-1.87;100.00;95517.16;5091739;28;20044;-77
2022/04/03 07:28:03;;;;;;;50.60;19.50;;;;;;;-1.98;100.00;95524.44;5099814;28;20047;-76
2022/04/03 07:30:29;;;;;;;43.88;18.70;;;;;;;-1.82;100.00;95532.88;5099251;28;20054;-76
2022/04/03 07:32:54;;;;;;;45.35;19.23;;;;;;;-1.94;100.00;95528.25;5090183;28;20032;-76
2022/04/03 07:35:20;;;;;;;47.30;19.55;;;;;;;-1.83;100.00;95526.13;5106165;27;20035;-76
2022/04/03 07:37:45;;;;;;;39.80;18.38;;;;;;;-1.86;100.00;95534.25;5085723;28;20051;-75
2022/04/03 07:40:11;;;;;;;44.47;19.13;;;;;;;-1.81;100.00;95537.03;5090728;28;20084;-75
2022/04/03 07:42:39;;;;;;;44.83;18.17;;;;;;;-1.83;100.00;95544.19;5090770;28;20405;-75
2022/04/03 07:45:05;;;;;;;43.40;17.27;;;;;;;-1.91;100.00;95547.72;5102366;28;20569;-75
2022/04/03 07:47:30;;;;;;;46.15;18.27;;;;;;;-1.85;100.00;95546.13;5111636;28;20122;-78
2022/04/03 07:49:56;;;;;;;44.95;18.70;;;;;;;-1.86;100.00;95555.66;5090069;28;20092;-76
2022/04/03 07:52:21;;;;;;;44.22;19.13;;;;;;;-1.66;100.00;95547.25;5091324;28;20048;-77
2022/04/03 07:54:47;;;;;;;42.13;17.70;;;;;;;-1.69;100.00;95545.84;5078400;28;20045;-76
2022/04/03 07:57:13;;;;;;;47.13;19.10;;;;;;;-1.62;100.00;95561.38;5104006;28;20043;-76
2022/04/03 07:59:38;;;;;;;41.20;18.23;;;;;;;-1.45;100.00;95559.22;5093925;28;20115;-76
2022/04/03 08:02:04;;;;;;;48.55;18.98;;;;;;;-1.30;100.00;95554.72;5099100;28;20143;-75
2022/04/03 08:04:29;;;;;;;42.20;17.05;;;;;;;-1.13;100.00;95562.16;5106604;28;20044;-75
2022/04/03 08:06:55;;;;;;;40.92;17.77;;;;;;;-1.01;100.00;95558.00;5099702;27;21803;-76
2022/04/03 08:09:21;;;;;;;40.33;17.25;;;;;;;-1.16;100.00;95559.97;5092701;28;20047;-76
2022/04/03 08:11:47;;;;;;;42.83;17.65;;;;;;;-1.21;100.00;95557.94;5096479;28;20052;-77
2022/04/03 08:14:13;;;;;;;35.90;16.38;;;;;;;-1.29;100.00;95561.50;5082139;28;20036;-77
2022/04/03 08:16:38;;;;;;;39.05;16.35;;;;;;;-1.00;100.00;95567.34;5106602;28;20416;-76
2022/04/03 08:19:04;;;;;;;40.65;16.55;;;;;;;-1.15;100.00;95564.94;5088753;27;20039;-76
2022/04/03 08:21:30;;;;;;;39.35;17.00;;;;;;;-0.90;100.00;95570.34;5109474;27;20088;-76
2022/04/03 08:23:56;;;;;;;36.88;17.38;;;;;;;-0.90;100.00;95575.50;5097600;27;20111;-75
2022/04/03 08:26:25;;;;;;;42.45;17.05;;;;;;;-1.15;100.00;95570.09;5089903;28;20157;-76
2022/04/03 08:28:53;;;;;;;39.65;17.88;;;;;;;-1.23;100.00;95581.38;5097720;28;20032;-81
2022/04/03 08:31:23;;;;;;;37.72;18.10;;;;;;;-1.29;100.00;95582.16;5100554;28;20097;-81
2022/04/03 08:33:49;;;;;;;40.22;17.40;;;;;;;-1.30;100.00;95583.13;5072321;28;20104;-77
2022/04/03 08:36:15;;;;;;;42.95;18.58;;;;;;;-1.31;100.00;95589.28;5087040;28;20093;-79
2022/04/03 08:38:41;;;;;;;43.90;19.25;;;;;;;-1.26;100.00;95581.75;5094126;28;20097;-74
2022/04/03 08:41:07;;;;;;;43.10;19.02;;;;;;;-1.31;100.00;95589.28;5090840;28;20040;-77
2022/04/03 08:43:32;;;;;;;47.65;20.33;;;;;;;-1.24;100.00;95595.25;5102412;28;20048;-78
2022/04/03 08:45:58;;;;;;;45.97;19.90;;;;;;;-1.05;100.00;95587.78;5088893;28;20429;-78
2022/04/03 08:48:30;;;;;;;53.47;21.83;;;;;;;-0.77;100.00;95589.47;5085534;28;20077;-78
2022/04/03 08:50:57;;;;;;;44.35;19.85;;;;;;;-0.80;100.00;95600.19;5101411;28;20067;-78
2022/04/03 08:53:25;;;;;;;47.92;20.38;;;;;;;-0.71;100.00;95593.84;5086456;28;20065;-78
2022/04/03 08:55:51;;;;;;;46.92;20.77;;;;;;;-0.64;100.00;95589.47;5078360;28;20449;-78
2022/04/03 08:58:18;;;;;;;45.28;20.48;;;;;;;-0.93;100.00;95596.56;5092699;28;20062;-78
2022/04/03 09:00:44;;;;;;;45.30;19.83;;;;;;;-0.92;100.00;95598.19;5105321;28;20047;-77
2022/04/03 09:03:12;;;;;;;46.15;21.02;;;;;;;-0.75;100.00;95592.63;5110746;28;20054;-78
2022/04/03 09:05:39;;;;;;;47.10;19.80;;;;;;;-0.72;100.00;95592.25;5093515;28;20115;-77
2022/04/03 09:08:05;;;;;;;41.00;18.48;;;;;;;-0.70;100.00;95598.03;5076230;28;20090;-78
2022/04/03 09:10:31;;;;;;;43.15;19.38;;;;;;;-0.67;100.00;95595.03;5094270;28;20047;-78
2022/04/03 09:12:57;;;;;;;49.03;20.08;;;;;;;-0.71;100.00;95596.41;5108496;28;20039;-78
2022/04/03 09:15:24;;;;;;;46.15;18.55;;;;;;;-0.76;100.00;95598.78;5094710;28;20173;-78
2022/04/03 09:17:54;;;;;;;35.42;16.83;;;;;;;-0.89;100.00;95599.53;5092269;28;20385;-78
2022/04/03 09:20:24;;;;;;;36.42;17.48;;;;;;;-0.72;100.00;95607.75;5111748;28;20071;-77
2022/04/03 09:22:55;;;;;;;45.92;18.95;;;;;;;-0.22;100.00;95608.19;5104513;28;20140;-77
2022/04/03 09:25:32;;;;;;;41.30;18.08;;;;;;;-0.33;99.04;95611.41;5111091;28;20036;-77
2022/04/03 09:28:00;;;;;;;45.83;18.45;;;;;;;-0.24;100.00;95610.19;5094637;28;20504;-77
2022/04/03 09:30:44;;;;;;;42.72;19.63;;;;;;;-0.41;100.00;95603.84;5074290;28;20044;-77
2022/04/03 09:33:12;;;;;;;38.67;17.80;;;;;;;-0.43;100.00;95605.81;5083773;28;20036;-77
2022/04/03 09:36:03;;;;;;;34.13;15.40;;;;;;;-0.45;99.84;95618.16;5092213;28;20047;-77
2022/04/03 09:38:30;;;;;;;37.03;15.48;;;;;;;-0.40;96.75;95615.78;5094385;28;20039;-78
2022/04/03 09:40:58;;;;;;;32.30;15.77;;;;;;;-0.24;100.00;95620.53;5080578;28;20118;-78
2022/04/03 09:43:23;;;;;;;30.58;14.43;;;;;;;-0.15;94.97;95617.78;5090798;28;20518;-78
2022/04/03 09:45:54;;;;;;;31.20;14.32;;;;;;;-0.35;95.06;95624.50;5091194;28;20083;-78
2022/04/03 09:48:48;;;;;;;28.88;14.13;;;;;;;-0.58;96.49;95624.88;5082305;28;20039;-77
2022/04/03 09:51:19;;;;;;;30.70;15.38;;;;;;;-0.60;96.98;95616.53;5089814;28;20070;-78
2022/04/03 09:53:49;;;;;;;33.70;16.48;;;;;;;-0.50;100.00;95630.84;5085418;28;20036;-77
2022/04/03 09:56:20;;;;;;;35.80;17.83;;;;;;;-0.20;99.95;95621.75;5094878;28;20060;-77
2022/04/03 09:58:49;;;;;;;33.22;15.77;;;;;;;0.39;99.59;95627.09;5113894;28;20532;-77
2022/04/03 10:01:34;;;;;;;35.58;15.43;;;;;;;0.45;95.23;95634.03;5095068;28;20063;-78
2022/04/03 10:04:01;;;;;;;29.08;15.38;;;;;;;0.43;95.50;95625.69;5088314;28;20137;-75
2022/04/03 10:06:27;;;;;;;29.40;15.25;;;;;;;0.01;92.11;95619.94;5103353;28;20172;-77
2022/04/03 10:08:53;;;;;;;34.42;13.82;;;;;;;0.21;91.84;95624.31;5084566;28;20044;-76
2022/04/03 10:11:20;;;;;;;24.98;13.32;;;;;;;0.11;92.23;95612.56;5087689;28;20072;-75
2022/04/03 10:13:47;;;;;;;35.30;13.77;;;;;;;0.06;94.34;95614.97;5079855;28;20039;-76
2022/04/03 10:16:14;;;;;;;28.75;13.98;;;;;;;-0.05;93.86;95618.16;5101882;28;20047;-75
2022/04/03 10:18:40;;;;;;;36.30;16.20;;;;;;;0.39;98.97;95618.50;5097742;28;20040;-76
2022/04/03 10:21:11;;;;;;;32.92;15.63;;;;;;;0.59;94.77;95614.09;5103846;27;20039;-75
2022/04/03 10:23:39;;;;;;;30.25;15.35;;;;;;;1.00;96.08;95614.75;5092473;28;20052;-76
2022/04/03 10:26:06;;;;;;;29.98;13.32;;;;;;;0.47;90.98;95616.50;5108492;27;20036;-76
2022/04/03 10:28:35;;;;;;;30.35;14.43;;;;;;;0.30;95.65;95617.94;5108773;28;20028;-74
2022/04/03 10:31:07;;;;;;;31.85;15.63;;;;;;;0.61;98.63;95606.91;5102425;28;20109;-76
2022/04/03 10:33:42;;;;;;;30.35;15.25;;;;;;;0.62;95.65;95618.09;5099636;28;20714;-76
2022/04/03 10:36:13;;;;;;;30.67;13.90;;;;;;;0.73;91.40;95625.19;5094793;28;20032;-76
2022/04/03 10:38:44;;;;;;;31.75;15.00;;;;;;;0.73;90.96;95620.00;5101668;28;20676;-77
2022/04/03 10:41:45;;;;;;;26.33;11.93;;;;;;;0.38;92.02;95617.72;5074350;28;20125;-77
2022/04/03 10:44:18;;;;;;;29.35;14.75;;;;;;;1.77;90.00;95619.09;5014359;28;20057;-76
2022/04/03 10:47:02;;;;;;;25.50;12.98;;;;;;;1.39;83.78;95618.13;5097522;28;20059;-76
2022/04/03 10:49:29;;;;;;;24.05;11.95;;;;;;;0.84;86.21;95616.78;5093327;28;20642;-76
2022/04/03 10:52:10;;;;;;;29.27;14.70;;;;;;;0.69;93.59;95613.69;5075005;28;20044;-75
2022/04/03 10:54:50;;;;;;;28.17;14.05;;;;;;;0.62;94.93;95618.09;5092075;28;20386;-76
2022/04/03 10:57:35;;;;;;;28.95;13.55;;;;;;;0.02;89.74;95613.78;5092153;28;20071;-76
2022/04/03 11:00:13;;;;;;;26.75;13.18;;;;;;;0.08;91.87;95612.97;5092203;28;20032;-75
2022/04/03 11:02:39;;;;;;;24.90;13.27;;;;;;;0.12;93.71;95618.56;5091502;28;20044;-76
2022/04/03 11:05:41;;;;;;;24.48;12.50;;;;;;;0.13;91.73;95620.94;5079361;28;20044;-76
2022/04/03 11:08:06;;;;;;;28.90;13.50;;;;;;;0.37;92.48;95626.47;5057556;28;20085;-75
2022/04/03 11:10:57;;;;;;;39.72;17.38;;;;;;;1.95;91.92;95615.78;5099429;28;20036;-75
2022/04/03 11:13:31;;;;;;;29.85;14.15;;;;;;;2.05;88.38;95616.09;5095229;28;20119;-76